Flood From: 17-02-2018 16:00 Until: 18-02-2018 16:00 warning for: Flood Level: Yellow info button

Although rather usual in this region, locally or potentially dangerous phenomena are expected. (such as local winds, summer thunderstorms, rising streams or high waves) Be aware and pay attention to the latest weather updates, especially if you carry out activities exposed to weather or close to a stream or shoreline. 


Meteo18 Weather Cam more information Meteo18 Weather Cam


Thunder radar more information blitzortung!


Rain radar more information rain snow radar


Visit our other weather sites:

Template documentation
and downloads

And another site



Weather Underground History page Text

Daily Summary for February 5, 2018 Units:  Both    English   Metric
« Previous Day
Next Day »
Daily Weekly Monthly Yearly Custom
  High: Low: Average:
Temperature: TemperatureC °F /  -17.8 °C -2.3 °F /  -19.1 °C -0.8 °F /  -18.2 °C
Dew Point: DewpointC °F /  -17.8 °C -3.9 °F /  -19.9 °C -2.1 °F /  -18.9 °C
Humidity: Humidity % 80 % 91 %
Wind Speed: WindSpeedKMH mph /  0 km/h - 6.9 mph /  11.1 km/h
Wind Gust: WindSpeedGustKMH mph /  0 km/h - -
Wind:- - East
Pressure: PressurehPa in /  0 hPa 1013.1 in /  34303.6 hPa -
Precipitation: 0.0 in /  0 mm    
Historical Graphs
 
 
Tabular Data for February 5, 2018
Time Temperature Dew Point Pressure Wind Wind Speed Wind Gust Humidity Rainfall Rate (Hourly)
TemperatureC °F /  -17.8 °C DewpointC °F /  -17.8 °C PressurehPa in /  0 hPa Calm     Humidity % HourlyPrecipMM in /  0 mm
00:05 -0.4 °F /  -18 °C -2.0 °F /  -18.9 °C 1019.5 in /  34520.3 hPa NE 6.4 mph /  10.3 km/h 17.7 mph /  28.5 km/h 89 % 0.0 in /  0 mm
00:11 -0.5 °F /  -18.1 °C -2.1 °F /  -18.9 °C 1019.5 in /  34520.3 hPa NNE 7.9 mph /  12.7 km/h 22.5 mph /  36.2 km/h 89 % 0.0 in /  0 mm
00:17 -0.6 °F /  -18.1 °C -2.2 °F /  -19 °C 1019.5 in /  34520.3 hPa NNE 11.1 mph /  17.9 km/h 17.7 mph /  28.5 km/h 89 % 0.0 in /  0 mm
00:23 -0.6 °F /  -18.1 °C -2.2 °F /  -19 °C 1019.5 in /  34520.3 hPa ENE 7.9 mph /  12.7 km/h 22.5 mph /  36.2 km/h 89 % 0.0 in /  0 mm
00:29 -0.6 °F /  -18.1 °C -2.3 °F /  -19.1 °C 1019.5 in /  34520.3 hPa NNE 19.5 mph /  31.4 km/h 27.4 mph /  44.1 km/h 88 % 0.0 in /  0 mm
00:35 -0.6 °F /  -18.1 °C -2.5 °F /  -19.2 °C 1019.5 in /  34520.3 hPa NNE 13.0 mph /  20.9 km/h 25.7 mph /  41.4 km/h 87 % 0.0 in /  0 mm
00:41 -0.7 °F /  -18.2 °C -2.7 °F /  -19.3 °C 1019.5 in /  34520.3 hPa NE 17.7 mph /  28.5 km/h 24.1 mph /  38.8 km/h 86 % 0.0 in /  0 mm
00:47 -0.7 °F /  -18.2 °C -2.6 °F /  -19.2 °C 1019.5 in /  34520.3 hPa NE 9.7 mph /  15.6 km/h 16.1 mph /  25.9 km/h 87 % 0.0 in /  0 mm
00:53 -0.7 °F /  -18.2 °C -2.7 °F /  -19.3 °C 1019.5 in /  34520.3 hPa NNE 17.7 mph /  28.5 km/h 20.9 mph /  33.6 km/h 86 % 0.0 in /  0 mm
00:59 -0.7 °F /  -18.2 °C -2.7 °F /  -19.3 °C 1019.5 in /  34520.3 hPa NNE 16.3 mph /  26.2 km/h 29.0 mph /  46.7 km/h 86 % 0.0 in /  0 mm
01:05 -0.8 °F /  -18.2 °C -3.0 °F /  -19.4 °C 1019.5 in /  34520.3 hPa NNE 13.0 mph /  20.9 km/h 24.1 mph /  38.8 km/h 85 % 0.0 in /  0 mm
01:11 -0.8 °F /  -18.2 °C -3.2 °F /  -19.6 °C 1019.5 in /  34520.3 hPa NNE 22.7 mph /  36.5 km/h 24.1 mph /  38.8 km/h 84 % 0.0 in /  0 mm
01:17 -0.8 °F /  -18.2 °C -3.2 °F /  -19.6 °C 1019.5 in /  34520.3 hPa NE 13.0 mph /  20.9 km/h 22.5 mph /  36.2 km/h 84 % 0.0 in /  0 mm
01:23 -0.8 °F /  -18.2 °C -3.2 °F /  -19.6 °C 1019.2 in /  34510.1 hPa NE 16.3 mph /  26.2 km/h 24.1 mph /  38.8 km/h 84 % 0.0 in /  0 mm
01:29 -0.8 °F /  -18.2 °C -3.5 °F /  -19.7 °C 1019.2 in /  34510.1 hPa NNE 9.7 mph /  15.6 km/h 24.1 mph /  38.8 km/h 82 % 0.0 in /  0 mm
01:35 -0.8 °F /  -18.2 °C -3.7 °F /  -19.8 °C 1019.5 in /  34520.3 hPa North 13.0 mph /  20.9 km/h 29.0 mph /  46.7 km/h 81 % 0.0 in /  0 mm
01:41 -0.8 °F /  -18.2 °C -3.7 °F /  -19.8 °C 1019.5 in /  34520.3 hPa NNE 20.9 mph /  33.6 km/h 29.0 mph /  46.7 km/h 81 % 0.0 in /  0 mm
01:47 -0.9 °F /  -18.3 °C -3.7 °F /  -19.8 °C 1019.5 in /  34520.3 hPa NE 14.3 mph /  23 km/h 30.6 mph /  49.2 km/h 81 % 0.0 in /  0 mm
01:53 -0.9 °F /  -18.3 °C -3.7 °F /  -19.8 °C 1019.5 in /  34520.3 hPa NE 9.7 mph /  15.6 km/h 30.6 mph /  49.2 km/h 81 % 0.0 in /  0 mm
01:59 -0.9 °F /  -18.3 °C -3.7 °F /  -19.8 °C 1019.5 in /  34520.3 hPa NNE 25.9 mph /  41.7 km/h 35.4 mph /  57 km/h 81 % 0.0 in /  0 mm
02:05 -0.9 °F /  -18.3 °C -3.9 °F /  -19.9 °C 1019.5 in /  34520.3 hPa NNE 20.9 mph /  33.6 km/h 24.1 mph /  38.8 km/h 80 % 0.0 in /  0 mm
02:11 -0.9 °F /  -18.3 °C -3.9 °F /  -19.9 °C 1019.5 in /  34520.3 hPa NE 17.7 mph /  28.5 km/h 29.0 mph /  46.7 km/h 80 % 0.0 in /  0 mm
02:17 -1.0 °F /  -18.3 °C -3.8 °F /  -19.9 °C 1019.5 in /  34520.3 hPa NE 20.9 mph /  33.6 km/h 20.9 mph /  33.6 km/h 81 % 0.0 in /  0 mm
02:23 -1.1 °F /  -18.4 °C -3.8 °F /  -19.9 °C 1019.5 in /  34520.3 hPa NE 11.1 mph /  17.9 km/h 24.1 mph /  38.8 km/h 82 % 0.0 in /  0 mm
02:29 -1.1 °F /  -18.4 °C -3.8 °F /  -19.9 °C 1019.2 in /  34510.1 hPa NE 17.7 mph /  28.5 km/h 30.6 mph /  49.2 km/h 82 % 0.0 in /  0 mm
02:35 -1.2 °F /  -18.4 °C -3.9 °F /  -19.9 °C 1019.2 in /  34510.1 hPa ENE 14.3 mph /  23 km/h 32.2 mph /  51.8 km/h 82 % 0.0 in /  0 mm
02:41 -1.2 °F /  -18.4 °C -3.9 °F /  -19.9 °C 1019.2 in /  34510.1 hPa NNE 20.9 mph /  33.6 km/h 25.7 mph /  41.4 km/h 82 % 0.0 in /  0 mm
02:47 -1.2 °F /  -18.4 °C -3.7 °F /  -19.8 °C 1019.2 in /  34510.1 hPa NNE 13.0 mph /  20.9 km/h 27.4 mph /  44.1 km/h 83 % 0.0 in /  0 mm
02:53 -1.3 °F /  -18.5 °C -3.8 °F /  -19.9 °C 1018.8 in /  34496.6 hPa NNE 11.1 mph /  17.9 km/h 27.4 mph /  44.1 km/h 83 % 0.0 in /  0 mm
02:59 -1.3 °F /  -18.5 °C -3.8 °F /  -19.9 °C 1018.8 in /  34496.6 hPa NNE 16.3 mph /  26.2 km/h 27.4 mph /  44.1 km/h 83 % 0.0 in /  0 mm
03:05 -1.3 °F /  -18.5 °C -3.7 °F /  -19.8 °C 1018.8 in /  34496.6 hPa NE 24.1 mph /  38.8 km/h 24.1 mph /  38.8 km/h 84 % 0.0 in /  0 mm
03:11 -1.4 °F /  -18.6 °C -3.9 °F /  -19.9 °C 1018.8 in /  34496.6 hPa NE 16.3 mph /  26.2 km/h 27.4 mph /  44.1 km/h 83 % 0.0 in /  0 mm
03:17 -1.4 °F /  -18.6 °C -3.8 °F /  -19.9 °C 1018.8 in /  34496.6 hPa NNE 24.1 mph /  38.8 km/h 27.4 mph /  44.1 km/h 84 % 0.0 in /  0 mm
03:23 -1.4 °F /  -18.6 °C -3.9 °F /  -19.9 °C 1019.2 in /  34510.1 hPa NNE 16.3 mph /  26.2 km/h 27.4 mph /  44.1 km/h 83 % 0.0 in /  0 mm
03:29 -1.4 °F /  -18.6 °C -3.8 °F /  -19.9 °C 1019.2 in /  34510.1 hPa ENE 13.0 mph /  20.9 km/h 19.3 mph /  31.1 km/h 84 % 0.0 in /  0 mm
03:35 -1.4 °F /  -18.6 °C -3.8 °F /  -19.9 °C 1019.2 in /  34510.1 hPa ENE 17.7 mph /  28.5 km/h 27.4 mph /  44.1 km/h 84 % 0.0 in /  0 mm
03:41 -1.4 °F /  -18.6 °C -3.8 °F /  -19.9 °C 1019.2 in /  34510.1 hPa NNE 7.9 mph /  12.7 km/h 17.7 mph /  28.5 km/h 84 % 0.0 in /  0 mm
03:47 -1.4 °F /  -18.6 °C -3.9 °F /  -19.9 °C 1019.2 in /  34510.1 hPa North 9.7 mph /  15.6 km/h 22.5 mph /  36.2 km/h 83 % 0.0 in /  0 mm
03:53 -1.4 °F /  -18.6 °C -3.8 °F /  -19.9 °C 1019.2 in /  34510.1 hPa NNE 13.0 mph /  20.9 km/h 14.5 mph /  23.3 km/h 84 % 0.0 in /  0 mm
03:59 -1.4 °F /  -18.6 °C -3.8 °F /  -19.9 °C 1018.8 in /  34496.6 hPa North 17.7 mph /  28.5 km/h 27.4 mph /  44.1 km/h 84 % 0.0 in /  0 mm
04:05 -1.4 °F /  -18.6 °C -3.8 °F /  -19.9 °C 1019.2 in /  34510.1 hPa NNE 4.7 mph /  7.6 km/h 16.1 mph /  25.9 km/h 84 % 0.0 in /  0 mm
04:11 -1.4 °F /  -18.6 °C -3.6 °F /  -19.8 °C 1018.8 in /  34496.6 hPa NE 9.7 mph /  15.6 km/h 17.7 mph /  28.5 km/h 85 % 0.0 in /  0 mm
04:17 -1.4 °F /  -18.6 °C -3.6 °F /  -19.8 °C 1018.8 in /  34496.6 hPa North 6.4 mph /  10.3 km/h 24.1 mph /  38.8 km/h 85 % 0.0 in /  0 mm
04:23 -1.4 °F /  -18.6 °C -3.4 °F /  -19.7 °C 1018.8 in /  34496.6 hPa NNE 13.0 mph /  20.9 km/h 27.4 mph /  44.1 km/h 86 % 0.0 in /  0 mm
04:29 -1.5 °F /  -18.6 °C -3.5 °F /  -19.7 °C 1018.8 in /  34496.6 hPa NNE 20.9 mph /  33.6 km/h 20.9 mph /  33.6 km/h 86 % 0.0 in /  0 mm
04:35 -1.5 °F /  -18.6 °C -3.5 °F /  -19.7 °C 1018.8 in /  34496.6 hPa NNW 9.7 mph /  15.6 km/h 25.7 mph /  41.4 km/h 86 % 0.0 in /  0 mm
04:41 -1.6 °F /  -18.7 °C -3.6 °F /  -19.8 °C 1018.8 in /  34496.6 hPa NE 4.7 mph /  7.6 km/h 17.7 mph /  28.5 km/h 86 % 0.0 in /  0 mm
04:47 -1.6 °F /  -18.7 °C -3.5 °F /  -19.7 °C 1018.8 in /  34496.6 hPa NE 6.4 mph /  10.3 km/h 22.5 mph /  36.2 km/h 87 % 0.0 in /  0 mm
04:53 -1.5 °F /  -18.6 °C -3.4 °F /  -19.7 °C 1018.8 in /  34496.6 hPa East 4.7 mph /  7.6 km/h 16.1 mph /  25.9 km/h 87 % 0.0 in /  0 mm
04:59 -1.6 °F /  -18.7 °C -3.5 °F /  -19.7 °C 1018.8 in /  34496.6 hPa NNE 7.9 mph /  12.7 km/h 17.7 mph /  28.5 km/h 87 % 0.0 in /  0 mm
05:05 -1.6 °F /  -18.7 °C -3.5 °F /  -19.7 °C 1018.8 in /  34496.6 hPa ENE 4.7 mph /  7.6 km/h 16.1 mph /  25.9 km/h 87 % 0.0 in /  0 mm
05:11 -1.6 °F /  -18.7 °C -3.5 °F /  -19.7 °C 1018.8 in /  34496.6 hPa NE 3.2 mph /  5.1 km/h 20.9 mph /  33.6 km/h 87 % 0.0 in /  0 mm
05:17 -1.6 °F /  -18.7 °C -3.5 °F /  -19.7 °C 1018.8 in /  34496.6 hPa NNE 9.7 mph /  15.6 km/h 19.3 mph /  31.1 km/h 87 % 0.0 in /  0 mm
05:23 -1.6 °F /  -18.7 °C -3.3 °F /  -19.6 °C 1018.8 in /  34496.6 hPa North 4.7 mph /  7.6 km/h 16.1 mph /  25.9 km/h 88 % 0.0 in /  0 mm
05:29 -1.6 °F /  -18.7 °C -3.3 °F /  -19.6 °C 1018.8 in /  34496.6 hPa NW 7.9 mph /  12.7 km/h 19.3 mph /  31.1 km/h 88 % 0.0 in /  0 mm
05:35 -1.6 °F /  -18.7 °C -3.3 °F /  -19.6 °C 1018.5 in /  34486.4 hPa NNE 9.7 mph /  15.6 km/h 19.3 mph /  31.1 km/h 88 % 0.0 in /  0 mm
05:41 -1.6 °F /  -18.7 °C -3.3 °F /  -19.6 °C 1018.5 in /  34486.4 hPa NE 6.4 mph /  10.3 km/h 22.5 mph /  36.2 km/h 88 % 0.0 in /  0 mm
05:47 -1.6 °F /  -18.7 °C -3.3 °F /  -19.6 °C 1018.5 in /  34486.4 hPa ENE 7.9 mph /  12.7 km/h 20.9 mph /  33.6 km/h 88 % 0.0 in /  0 mm
05:53 -1.6 °F /  -18.7 °C -3.3 °F /  -19.6 °C 1018.5 in /  34486.4 hPa NNW 11.1 mph /  17.9 km/h 20.9 mph /  33.6 km/h 88 % 0.0 in /  0 mm
05:59 -1.7 °F /  -18.7 °C -3.3 °F /  -19.6 °C 1018.5 in /  34486.4 hPa NW 3.2 mph /  5.1 km/h 20.9 mph /  33.6 km/h 89 % 0.0 in /  0 mm
06:05 -1.7 °F /  -18.7 °C -3.3 °F /  -19.6 °C 1018.5 in /  34486.4 hPa NNE 9.7 mph /  15.6 km/h 22.5 mph /  36.2 km/h 89 % 0.0 in /  0 mm
06:11 -1.7 °F /  -18.7 °C -3.3 °F /  -19.6 °C 1018.5 in /  34486.4 hPa North 6.4 mph /  10.3 km/h 17.7 mph /  28.5 km/h 89 % 0.0 in /  0 mm
06:17 -1.7 °F /  -18.7 °C -3.3 °F /  -19.6 °C 1018.5 in /  34486.4 hPa NW 13.0 mph /  20.9 km/h 20.9 mph /  33.6 km/h 89 % 0.0 in /  0 mm
06:23 -1.7 °F /  -18.7 °C -3.3 °F /  -19.6 °C 1018.5 in /  34486.4 hPa NNE 4.7 mph /  7.6 km/h 17.7 mph /  28.5 km/h 89 % 0.0 in /  0 mm
06:29 -1.7 °F /  -18.7 °C -3.4 °F /  -19.7 °C 1018.5 in /  34486.4 hPa NNE 9.7 mph /  15.6 km/h 27.4 mph /  44.1 km/h 88 % 0.0 in /  0 mm
06:35 -1.8 °F /  -18.8 °C -3.4 °F /  -19.7 °C 1018.5 in /  34486.4 hPa NNW 6.4 mph /  10.3 km/h 22.5 mph /  36.2 km/h 89 % 0.0 in /  0 mm
06:41 -1.8 °F /  -18.8 °C -3.4 °F /  -19.7 °C 1018.5 in /  34486.4 hPa North 6.4 mph /  10.3 km/h 20.9 mph /  33.6 km/h 89 % 0.0 in /  0 mm
06:47 -1.8 °F /  -18.8 °C -3.4 °F /  -19.7 °C 1018.2 in /  34476.3 hPa North 9.7 mph /  15.6 km/h 19.3 mph /  31.1 km/h 89 % 0.0 in /  0 mm
06:53 -1.8 °F /  -18.8 °C -3.4 °F /  -19.7 °C 1018.2 in /  34476.3 hPa NE 4.7 mph /  7.6 km/h 22.5 mph /  36.2 km/h 89 % 0.0 in /  0 mm
06:59 -1.8 °F /  -18.8 °C -3.4 °F /  -19.7 °C 1018.2 in /  34476.3 hPa NNW 1.4 mph /  2.3 km/h 22.5 mph /  36.2 km/h 89 % 0.0 in /  0 mm
07:05 -1.9 °F /  -18.8 °C -3.5 °F /  -19.7 °C 1018.2 in /  34476.3 hPa NE 13.0 mph /  20.9 km/h 20.9 mph /  33.6 km/h 89 % 0.0 in /  0 mm
07:11 -1.9 °F /  -18.8 °C -3.3 °F /  -19.6 °C 1018.2 in /  34476.3 hPa North 13.0 mph /  20.9 km/h 17.7 mph /  28.5 km/h 90 % 0.0 in /  0 mm
07:18 -1.9 °F /  -18.8 °C -3.3 °F /  -19.6 °C 1018.2 in /  34476.3 hPa North 6.4 mph /  10.3 km/h 20.9 mph /  33.6 km/h 90 % 0.0 in /  0 mm
07:24 -1.9 °F /  -18.8 °C -3.3 °F /  -19.6 °C 1018.2 in /  34476.3 hPa NE 11.1 mph /  17.9 km/h 17.7 mph /  28.5 km/h 90 % 0.0 in /  0 mm
07:30 -2.0 °F /  -18.9 °C -3.4 °F /  -19.7 °C 1018.2 in /  34476.3 hPa North 17.7 mph /  28.5 km/h 17.7 mph /  28.5 km/h 90 % 0.0 in /  0 mm
07:36 -2.1 °F /  -18.9 °C -3.5 °F /  -19.7 °C 1018.2 in /  34476.3 hPa NW 9.7 mph /  15.6 km/h 20.9 mph /  33.6 km/h 90 % 0.0 in /  0 mm
07:42 -2.1 °F /  -18.9 °C -3.5 °F /  -19.7 °C 1018.2 in /  34476.3 hPa NNW 9.7 mph /  15.6 km/h 16.1 mph /  25.9 km/h 90 % 0.0 in /  0 mm
07:48 -2.1 °F /  -18.9 °C -3.4 °F /  -19.7 °C 1018.2 in /  34476.3 hPa North 3.2 mph /  5.1 km/h 17.7 mph /  28.5 km/h 91 % 0.0 in /  0 mm
07:54 -2.1 °F /  -18.9 °C -3.5 °F /  -19.7 °C 1018.2 in /  34476.3 hPa NNW 1.4 mph /  2.3 km/h 17.7 mph /  28.5 km/h 90 % 0.0 in /  0 mm
08:00 -2.1 °F /  -18.9 °C -3.4 °F /  -19.7 °C 1018.2 in /  34476.3 hPa NNW 7.9 mph /  12.7 km/h 9.7 mph /  15.6 km/h 91 % 0.0 in /  0 mm
08:06 -2.2 °F /  -19 °C -3.5 °F /  -19.7 °C 1018.2 in /  34476.3 hPa North 1.4 mph /  2.3 km/h 11.3 mph /  18.2 km/h 91 % 0.0 in /  0 mm
08:12 -2.2 °F /  -19 °C -3.5 °F /  -19.7 °C 1018.2 in /  34476.3 hPa NNW 14.3 mph /  23 km/h 25.7 mph /  41.4 km/h 91 % 0.0 in /  0 mm
08:18 -2.2 °F /  -19 °C -3.5 °F /  -19.7 °C 1018.2 in /  34476.3 hPa NE 1.4 mph /  2.3 km/h 19.3 mph /  31.1 km/h 91 % 0.0 in /  0 mm
08:24 -2.2 °F /  -19 °C -3.5 °F /  -19.7 °C 1018.5 in /  34486.4 hPa North 11.1 mph /  17.9 km/h 19.3 mph /  31.1 km/h 91 % 0.0 in /  0 mm
08:30 -2.2 °F /  -19 °C -3.5 °F /  -19.7 °C 1018.5 in /  34486.4 hPa NNW 9.7 mph /  15.6 km/h 12.9 mph /  20.8 km/h 91 % 0.0 in /  0 mm
08:36 -2.2 °F /  -19 °C -3.5 °F /  -19.7 °C 1018.2 in /  34476.3 hPa NNW 13.0 mph /  20.9 km/h 17.7 mph /  28.5 km/h 91 % 0.0 in /  0 mm
08:42 -2.2 °F /  -19 °C -3.5 °F /  -19.7 °C 1018.2 in /  34476.3 hPa NNW 9.7 mph /  15.6 km/h 16.1 mph /  25.9 km/h 91 % 0.0 in /  0 mm
08:48 -2.2 °F /  -19 °C -3.5 °F /  -19.7 °C 1018.2 in /  34476.3 hPa NW 9.7 mph /  15.6 km/h 11.3 mph /  18.2 km/h 91 % 0.0 in /  0 mm
08:54 -2.3 °F /  -19.1 °C -3.6 °F /  -19.8 °C 1018.2 in /  34476.3 hPa NE 4.7 mph /  7.6 km/h 17.7 mph /  28.5 km/h 91 % 0.0 in /  0 mm
09:00 -2.2 °F /  -19 °C -3.5 °F /  -19.7 °C 1018.2 in /  34476.3 hPa North 13.0 mph /  20.9 km/h 16.1 mph /  25.9 km/h 91 % 0.0 in /  0 mm
09:06 -2.2 °F /  -19 °C -3.5 °F /  -19.7 °C 1018.2 in /  34476.3 hPa North 4.7 mph /  7.6 km/h 16.1 mph /  25.9 km/h 91 % 0.0 in /  0 mm
09:12 -2.2 °F /  -19 °C -3.3 °F /  -19.6 °C 1018.2 in /  34476.3 hPa ENE 7.9 mph /  12.7 km/h 9.7 mph /  15.6 km/h 92 % 0.0 in /  0 mm
09:18 -2.2 °F /  -19 °C -3.3 °F /  -19.6 °C 1018.5 in /  34486.4 hPa NNW 14.3 mph /  23 km/h 16.1 mph /  25.9 km/h 92 % 0.0 in /  0 mm
09:24 -2.2 °F /  -19 °C -3.3 °F /  -19.6 °C 1018.2 in /  34476.3 hPa NNW 13.0 mph /  20.9 km/h 17.7 mph /  28.5 km/h 92 % 0.0 in /  0 mm
09:30 -2.2 °F /  -19 °C -3.3 °F /  -19.6 °C 1018.2 in /  34476.3 hPa NE 7.9 mph /  12.7 km/h 14.5 mph /  23.3 km/h 92 % 0.0 in /  0 mm
09:36 -2.2 °F /  -19 °C -3.3 °F /  -19.6 °C 1018.2 in /  34476.3 hPa NE 6.4 mph /  10.3 km/h 12.9 mph /  20.8 km/h 92 % 0.0 in /  0 mm
09:42 -2.1 °F /  -18.9 °C -3.2 °F /  -19.6 °C 1018.5 in /  34486.4 hPa NNE 9.7 mph /  15.6 km/h 12.9 mph /  20.8 km/h 92 % 0.0 in /  0 mm
09:48 -2.1 °F /  -18.9 °C -3.2 °F /  -19.6 °C 1018.2 in /  34476.3 hPa Calm   11.3 mph /  18.2 km/h 92 % 0.0 in /  0 mm
09:54 -2.1 °F /  -18.9 °C -3.2 °F /  -19.6 °C 1018.5 in /  34486.4 hPa NE 9.7 mph /  15.6 km/h 12.9 mph /  20.8 km/h 92 % 0.0 in /  0 mm
10:00 -2.0 °F /  -18.9 °C -3.1 °F /  -19.5 °C 1018.5 in /  34486.4 hPa NNW 1.4 mph /  2.3 km/h 9.7 mph /  15.6 km/h 92 % 0.0 in /  0 mm
10:06 -1.9 °F /  -18.8 °C -3.0 °F /  -19.4 °C 1018.5 in /  34486.4 hPa NNE 9.7 mph /  15.6 km/h 9.7 mph /  15.6 km/h 92 % 0.0 in /  0 mm
10:12 -1.9 °F /  -18.8 °C -3.2 °F /  -19.6 °C 1018.5 in /  34486.4 hPa NNW 9.7 mph /  15.6 km/h 16.1 mph /  25.9 km/h 91 % 0.0 in /  0 mm
10:18 -1.9 °F /  -18.8 °C -3.2 °F /  -19.6 °C 1018.5 in /  34486.4 hPa North 9.7 mph /  15.6 km/h 12.9 mph /  20.8 km/h 91 % 0.0 in /  0 mm
10:24 -1.8 °F /  -18.8 °C -3.1 °F /  -19.5 °C 1018.5 in /  34486.4 hPa NNW 7.9 mph /  12.7 km/h 14.5 mph /  23.3 km/h 91 % 0.0 in /  0 mm
10:30 -1.8 °F /  -18.8 °C -3.1 °F /  -19.5 °C 1018.5 in /  34486.4 hPa NE 7.9 mph /  12.7 km/h 12.9 mph /  20.8 km/h 91 % 0.0 in /  0 mm
10:36 -1.8 °F /  -18.8 °C -3.1 °F /  -19.5 °C 1018.5 in /  34486.4 hPa NNE 4.7 mph /  7.6 km/h 16.1 mph /  25.9 km/h 91 % 0.0 in /  0 mm
10:42 -1.7 °F /  -18.7 °C -3.0 °F /  -19.4 °C 1018.2 in /  34476.3 hPa NNE 7.9 mph /  12.7 km/h 11.3 mph /  18.2 km/h 91 % 0.0 in /  0 mm
10:48 -1.6 °F /  -18.7 °C -2.9 °F /  -19.4 °C 1018.2 in /  34476.3 hPa NNE 4.7 mph /  7.6 km/h 14.5 mph /  23.3 km/h 91 % 0.0 in /  0 mm
10:54 -1.7 °F /  -18.7 °C -3.0 °F /  -19.4 °C 1018.2 in /  34476.3 hPa North 1.4 mph /  2.3 km/h 12.9 mph /  20.8 km/h 91 % 0.0 in /  0 mm
11:00 -1.6 °F /  -18.7 °C -2.9 °F /  -19.4 °C 1017.8 in /  34462.7 hPa ENE 4.7 mph /  7.6 km/h 16.1 mph /  25.9 km/h 91 % 0.0 in /  0 mm
11:06 -1.6 °F /  -18.7 °C -2.9 °F /  -19.4 °C 1018.2 in /  34476.3 hPa NE 13.0 mph /  20.9 km/h 16.1 mph /  25.9 km/h 91 % 0.0 in /  0 mm
11:12 -1.5 °F /  -18.6 °C -2.8 °F /  -19.3 °C 1018.2 in /  34476.3 hPa North 9.7 mph /  15.6 km/h 12.9 mph /  20.8 km/h 91 % 0.0 in /  0 mm
11:18 -1.4 °F /  -18.6 °C -2.7 °F /  -19.3 °C 1018.2 in /  34476.3 hPa ENE 9.7 mph /  15.6 km/h 16.1 mph /  25.9 km/h 91 % 0.0 in /  0 mm
11:24 -1.5 °F /  -18.6 °C -2.8 °F /  -19.3 °C 1018.2 in /  34476.3 hPa NNE 6.4 mph /  10.3 km/h 11.3 mph /  18.2 km/h 91 % 0.0 in /  0 mm
11:30 -1.4 °F /  -18.6 °C -2.7 °F /  -19.3 °C 1018.2 in /  34476.3 hPa NE 4.7 mph /  7.6 km/h 11.3 mph /  18.2 km/h 91 % 0.0 in /  0 mm
11:36 -1.4 °F /  -18.6 °C -2.7 °F /  -19.3 °C 1018.2 in /  34476.3 hPa North 4.7 mph /  7.6 km/h 9.7 mph /  15.6 km/h 91 % 0.0 in /  0 mm
11:42 -1.4 °F /  -18.6 °C -2.7 °F /  -19.3 °C 1018.2 in /  34476.3 hPa NNE 6.4 mph /  10.3 km/h 11.3 mph /  18.2 km/h 91 % 0.0 in /  0 mm
11:48 -1.3 °F /  -18.5 °C -2.6 °F /  -19.2 °C 1018.2 in /  34476.3 hPa NNE 7.9 mph /  12.7 km/h 11.3 mph /  18.2 km/h 91 % 0.0 in /  0 mm
11:54 -1.3 °F /  -18.5 °C -2.6 °F /  -19.2 °C 1018.2 in /  34476.3 hPa ENE 3.2 mph /  5.1 km/h 11.3 mph /  18.2 km/h 91 % 0.0 in /  0 mm
12:00 -1.3 °F /  -18.5 °C -2.6 °F /  -19.2 °C 1018.2 in /  34476.3 hPa NE 7.9 mph /  12.7 km/h 9.7 mph /  15.6 km/h 91 % 0.0 in /  0 mm
12:06 -1.3 °F /  -18.5 °C -2.6 °F /  -19.2 °C 1018.2 in /  34476.3 hPa North 1.4 mph /  2.3 km/h 6.4 mph /  10.3 km/h 91 % 0.0 in /  0 mm
12:12 -1.2 °F /  -18.4 °C -2.5 °F /  -19.2 °C 1017.8 in /  34462.7 hPa NNE 7.9 mph /  12.7 km/h 8.0 mph /  12.9 km/h 91 % 0.0 in /  0 mm
12:18 -1.2 °F /  -18.4 °C -2.5 °F /  -19.2 °C 1017.8 in /  34462.7 hPa NE 4.7 mph /  7.6 km/h 8.0 mph /  12.9 km/h 91 % 0.0 in /  0 mm
12:24 -1.2 °F /  -18.4 °C -2.5 °F /  -19.2 °C 1017.8 in /  34462.7 hPa ENE 1.4 mph /  2.3 km/h 8.0 mph /  12.9 km/h 91 % 0.0 in /  0 mm
12:30 -1.1 °F /  -18.4 °C -2.2 °F /  -19 °C 1017.8 in /  34462.7 hPa NE 3.2 mph /  5.1 km/h 9.7 mph /  15.6 km/h 92 % 0.0 in /  0 mm
12:36 -1.1 °F /  -18.4 °C -2.2 °F /  -19 °C 1017.8 in /  34462.7 hPa North 3.2 mph /  5.1 km/h 9.7 mph /  15.6 km/h 92 % 0.0 in /  0 mm
12:42 -1.1 °F /  -18.4 °C -2.2 °F /  -19 °C 1017.8 in /  34462.7 hPa Calm   1.6 mph /  2.6 km/h 92 % 0.0 in /  0 mm
12:48 -1.1 °F /  -18.4 °C -2.2 °F /  -19 °C 1017.8 in /  34462.7 hPa NNE 3.2 mph /  5.1 km/h 8.0 mph /  12.9 km/h 92 % 0.0 in /  0 mm
12:54 -1.0 °F /  -18.3 °C -2.1 °F /  -18.9 °C 1017.8 in /  34462.7 hPa NE 6.4 mph /  10.3 km/h 8.0 mph /  12.9 km/h 92 % 0.0 in /  0 mm
13:00 -1.0 °F /  -18.3 °C -2.1 °F /  -18.9 °C 1017.5 in /  34452.6 hPa NNE 4.7 mph /  7.6 km/h 8.0 mph /  12.9 km/h 92 % 0.0 in /  0 mm
13:06 -0.9 °F /  -18.3 °C -2.0 °F /  -18.9 °C 1017.5 in /  34452.6 hPa NNE 1.4 mph /  2.3 km/h 11.3 mph /  18.2 km/h 92 % 0.0 in /  0 mm
13:12 -0.9 °F /  -18.3 °C -2.0 °F /  -18.9 °C 1017.5 in /  34452.6 hPa NNE 4.7 mph /  7.6 km/h 8.0 mph /  12.9 km/h 92 % 0.0 in /  0 mm
13:18 -0.9 °F /  -18.3 °C -2.0 °F /  -18.9 °C 1017.2 in /  34442.4 hPa North 3.2 mph /  5.1 km/h 12.9 mph /  20.8 km/h 92 % 0.0 in /  0 mm
13:24 -0.9 °F /  -18.3 °C -2.0 °F /  -18.9 °C 1017.2 in /  34442.4 hPa NE 6.4 mph /  10.3 km/h 11.3 mph /  18.2 km/h 92 % 0.0 in /  0 mm
13:30 -0.8 °F /  -18.2 °C -1.9 °F /  -18.8 °C 1017.2 in /  34442.4 hPa NNE 1.4 mph /  2.3 km/h 4.8 mph /  7.7 km/h 92 % 0.0 in /  0 mm
13:36 -0.7 °F /  -18.2 °C -1.8 °F /  -18.8 °C 1017.2 in /  34442.4 hPa North 7.9 mph /  12.7 km/h 9.7 mph /  15.6 km/h 92 % 0.0 in /  0 mm
13:42 -0.7 °F /  -18.2 °C -1.8 °F /  -18.8 °C 1016.8 in /  34428.8 hPa Calm   11.3 mph /  18.2 km/h 92 % 0.0 in /  0 mm
13:48 -0.7 °F /  -18.2 °C -1.8 °F /  -18.8 °C 1016.8 in /  34428.8 hPa NE 1.4 mph /  2.3 km/h 9.7 mph /  15.6 km/h 92 % 0.0 in /  0 mm
13:54 -0.7 °F /  -18.2 °C -1.8 °F /  -18.8 °C 1016.8 in /  34428.8 hPa NE 3.2 mph /  5.1 km/h 9.7 mph /  15.6 km/h 92 % 0.0 in /  0 mm
14:00 -0.6 °F /  -18.1 °C -1.7 °F /  -18.7 °C 1016.8 in /  34428.8 hPa NNE 4.7 mph /  7.6 km/h 9.7 mph /  15.6 km/h 92 % 0.0 in /  0 mm
14:06 -0.6 °F /  -18.1 °C -1.7 °F /  -18.7 °C 1016.8 in /  34428.8 hPa North 9.7 mph /  15.6 km/h 11.3 mph /  18.2 km/h 92 % 0.0 in /  0 mm
14:12 -0.6 °F /  -18.1 °C -1.7 °F /  -18.7 °C 1016.8 in /  34428.8 hPa NE 4.7 mph /  7.6 km/h 12.9 mph /  20.8 km/h 92 % 0.0 in /  0 mm
14:18 -0.5 °F /  -18.1 °C -1.6 °F /  -18.7 °C 1016.8 in /  34428.8 hPa NNE 4.7 mph /  7.6 km/h 9.7 mph /  15.6 km/h 92 % 0.0 in /  0 mm
14:24 -0.4 °F /  -18 °C -1.5 °F /  -18.6 °C 1016.5 in /  34418.7 hPa ENE 3.2 mph /  5.1 km/h 9.7 mph /  15.6 km/h 92 % 0.0 in /  0 mm
14:30 -0.4 °F /  -18 °C -1.5 °F /  -18.6 °C 1016.5 in /  34418.7 hPa NNE 3.2 mph /  5.1 km/h 11.3 mph /  18.2 km/h 92 % 0.0 in /  0 mm
14:36 -0.3 °F /  -17.9 °C -1.4 °F /  -18.6 °C 1016.5 in /  34418.7 hPa NNE 3.2 mph /  5.1 km/h 9.7 mph /  15.6 km/h 92 % 0.0 in /  0 mm
14:42 -0.4 °F /  -18 °C -1.5 °F /  -18.6 °C 1016.1 in /  34405.1 hPa North 1.4 mph /  2.3 km/h 12.9 mph /  20.8 km/h 92 % 0.0 in /  0 mm
14:48 -0.3 °F /  -17.9 °C -1.4 °F /  -18.6 °C 1016.5 in /  34418.7 hPa North 1.4 mph /  2.3 km/h 17.7 mph /  28.5 km/h 92 % 0.0 in /  0 mm
14:54 -0.3 °F /  -17.9 °C -1.4 °F /  -18.6 °C 1016.1 in /  34405.1 hPa NNE 3.2 mph /  5.1 km/h 17.7 mph /  28.5 km/h 92 % 0.0 in /  0 mm
15:00 -0.3 °F /  -17.9 °C -1.4 °F /  -18.6 °C 1016.1 in /  34405.1 hPa North 6.4 mph /  10.3 km/h 14.5 mph /  23.3 km/h 92 % 0.0 in /  0 mm
15:06 -0.2 °F /  -17.9 °C -1.3 °F /  -18.5 °C 1016.1 in /  34405.1 hPa NNW 6.4 mph /  10.3 km/h 11.3 mph /  18.2 km/h 92 % 0.0 in /  0 mm
15:12 -0.2 °F /  -17.9 °C -1.3 °F /  -18.5 °C 1016.1 in /  34405.1 hPa North 3.2 mph /  5.1 km/h 11.3 mph /  18.2 km/h 92 % 0.0 in /  0 mm
15:18 -0.1 °F /  -17.8 °C -1.2 °F /  -18.4 °C 1016.1 in /  34405.1 hPa NNE 7.9 mph /  12.7 km/h 16.1 mph /  25.9 km/h 92 % 0.0 in /  0 mm
15:24 -0.1 °F /  -17.8 °C -1.2 °F /  -18.4 °C 1015.8 in /  34395 hPa NE 6.4 mph /  10.3 km/h 16.1 mph /  25.9 km/h 92 % 0.0 in /  0 mm
15:30 -0.1 °F /  -17.8 °C -1.2 °F /  -18.4 °C 1015.8 in /  34395 hPa NNW 9.7 mph /  15.6 km/h 12.9 mph /  20.8 km/h 92 % 0.0 in /  0 mm
15:36 -0.1 °F /  -17.8 °C -1.2 °F /  -18.4 °C 1015.8 in /  34395 hPa ENE 9.7 mph /  15.6 km/h 12.9 mph /  20.8 km/h 92 % 0.0 in /  0 mm
15:42 0.0 °F /  -17.8 °C -1.1 °F /  -18.4 °C 1015.8 in /  34395 hPa North 7.9 mph /  12.7 km/h 12.9 mph /  20.8 km/h 92 % 0.0 in /  0 mm
15:48 0.1 °F /  -17.7 °C -1.0 °F /  -18.3 °C 1015.8 in /  34395 hPa NNE 3.2 mph /  5.1 km/h 11.3 mph /  18.2 km/h 92 % 0.0 in /  0 mm
15:54 0.1 °F /  -17.7 °C -1.0 °F /  -18.3 °C 1015.5 in /  34384.8 hPa NE 9.7 mph /  15.6 km/h 19.3 mph /  31.1 km/h 92 % 0.0 in /  0 mm
16:00 0.1 °F /  -17.7 °C -1.0 °F /  -18.3 °C 1015.5 in /  34384.8 hPa NNE 6.4 mph /  10.3 km/h 12.9 mph /  20.8 km/h 92 % 0.0 in /  0 mm
16:06 0.1 °F /  -17.7 °C -1.0 °F /  -18.3 °C 1015.5 in /  34384.8 hPa North 3.2 mph /  5.1 km/h 14.5 mph /  23.3 km/h 92 % 0.0 in /  0 mm
16:12 0.1 °F /  -17.7 °C -1.0 °F /  -18.3 °C 1015.5 in /  34384.8 hPa NNE 13.0 mph /  20.9 km/h 13.0 mph /  20.9 km/h 92 % 0.0 in /  0 mm
16:18 0.1 °F /  -17.7 °C -1.0 °F /  -18.3 °C 1015.5 in /  34384.8 hPa NNE 7.9 mph /  12.7 km/h 11.3 mph /  18.2 km/h 92 % 0.0 in /  0 mm
16:24 0.2 °F /  -17.7 °C -0.9 °F /  -18.3 °C 1015.1 in /  34371.3 hPa NW 3.2 mph /  5.1 km/h 12.9 mph /  20.8 km/h 92 % 0.0 in /  0 mm
16:30 0.1 °F /  -17.7 °C -1.0 °F /  -18.3 °C 1015.1 in /  34371.3 hPa NNW 3.2 mph /  5.1 km/h 11.3 mph /  18.2 km/h 92 % 0.0 in /  0 mm
16:36 0.1 °F /  -17.7 °C -1.0 °F /  -18.3 °C 1015.1 in /  34371.3 hPa NNE 11.1 mph /  17.9 km/h 14.5 mph /  23.3 km/h 92 % 0.0 in /  0 mm
16:42 0.2 °F /  -17.7 °C -0.9 °F /  -18.3 °C 1015.1 in /  34371.3 hPa NNE 3.2 mph /  5.1 km/h 12.9 mph /  20.8 km/h 92 % 0.0 in /  0 mm
16:48 0.2 °F /  -17.7 °C -0.9 °F /  -18.3 °C 1015.1 in /  34371.3 hPa North 4.7 mph /  7.6 km/h 16.1 mph /  25.9 km/h 92 % 0.0 in /  0 mm
16:54 0.2 °F /  -17.7 °C -0.9 °F /  -18.3 °C 1015.1 in /  34371.3 hPa NE 14.3 mph /  23 km/h 16.1 mph /  25.9 km/h 92 % 0.0 in /  0 mm
17:00 0.2 °F /  -17.7 °C -0.9 °F /  -18.3 °C 1015.1 in /  34371.3 hPa NNE 7.9 mph /  12.7 km/h 8.0 mph /  12.9 km/h 92 % 0.0 in /  0 mm
17:06 0.2 °F /  -17.7 °C -0.9 °F /  -18.3 °C 1015.1 in /  34371.3 hPa NNE 1.4 mph /  2.3 km/h 9.7 mph /  15.6 km/h 92 % 0.0 in /  0 mm
17:12 0.3 °F /  -17.6 °C -0.8 °F /  -18.2 °C 1015.1 in /  34371.3 hPa NE 3.2 mph /  5.1 km/h 8.0 mph /  12.9 km/h 92 % 0.0 in /  0 mm
17:18 0.3 °F /  -17.6 °C -0.8 °F /  -18.2 °C 1015.1 in /  34371.3 hPa North 1.4 mph /  2.3 km/h 8.0 mph /  12.9 km/h 92 % 0.0 in /  0 mm
17:24 0.3 °F /  -17.6 °C -0.8 °F /  -18.2 °C 1015.1 in /  34371.3 hPa NNE 3.2 mph /  5.1 km/h 6.4 mph /  10.3 km/h 92 % 0.0 in /  0 mm
17:30 0.3 °F /  -17.6 °C -0.8 °F /  -18.2 °C 1015.1 in /  34371.3 hPa NE 9.7 mph /  15.6 km/h 12.9 mph /  20.8 km/h 92 % 0.0 in /  0 mm
17:36 0.3 °F /  -17.6 °C -0.8 °F /  -18.2 °C 1015.1 in /  34371.3 hPa NNE 7.9 mph /  12.7 km/h 9.7 mph /  15.6 km/h 92 % 0.0 in /  0 mm
17:42 0.3 °F /  -17.6 °C -0.8 °F /  -18.2 °C 1015.1 in /  34371.3 hPa NNE 6.4 mph /  10.3 km/h 9.7 mph /  15.6 km/h 92 % 0.0 in /  0 mm
17:48 0.3 °F /  -17.6 °C -0.7 °F /  -18.2 °C 1015.1 in /  34371.3 hPa ENE 7.9 mph /  12.7 km/h 9.7 mph /  15.6 km/h 93 % 0.0 in /  0 mm
17:54 0.3 °F /  -17.6 °C -0.7 °F /  -18.2 °C 1015.1 in /  34371.3 hPa NNE 3.2 mph /  5.1 km/h 8.0 mph /  12.9 km/h 93 % 0.0 in /  0 mm
18:01 0.3 °F /  -17.6 °C -0.7 °F /  -18.2 °C 1015.1 in /  34371.3 hPa NE 6.4 mph /  10.3 km/h 9.7 mph /  15.6 km/h 93 % 0.0 in /  0 mm
18:07 0.2 °F /  -17.7 °C -0.8 °F /  -18.2 °C 1015.1 in /  34371.3 hPa Calm   9.7 mph /  15.6 km/h 93 % 0.0 in /  0 mm
18:13 0.2 °F /  -17.7 °C -0.8 °F /  -18.2 °C 1014.8 in /  34361.1 hPa NNE 4.7 mph /  7.6 km/h 6.4 mph /  10.3 km/h 93 % 0.0 in /  0 mm
18:19 0.2 °F /  -17.7 °C -0.7 °F /  -18.2 °C 1014.8 in /  34361.1 hPa NE 3.2 mph /  5.1 km/h 8.0 mph /  12.9 km/h 94 % 0.0 in /  0 mm
18:25 0.2 °F /  -17.7 °C -0.7 °F /  -18.2 °C 1014.8 in /  34361.1 hPa NE 6.4 mph /  10.3 km/h 8.0 mph /  12.9 km/h 94 % 0.0 in /  0 mm
18:31 0.1 °F /  -17.7 °C -0.8 °F /  -18.2 °C 1014.8 in /  34361.1 hPa ENE 1.4 mph /  2.3 km/h 9.7 mph /  15.6 km/h 94 % 0.0 in /  0 mm
18:37 0.1 °F /  -17.7 °C -0.8 °F /  -18.2 °C 1014.8 in /  34361.1 hPa NNE 4.7 mph /  7.6 km/h 9.7 mph /  15.6 km/h 94 % 0.0 in /  0 mm
18:43 0.0 °F /  -17.8 °C -0.7 °F /  -18.2 °C 1014.8 in /  34361.1 hPa NNE 1.4 mph /  2.3 km/h 8.0 mph /  12.9 km/h 95 % 0.0 in /  0 mm
18:49 0.0 °F /  -17.8 °C -0.7 °F /  -18.2 °C 1014.8 in /  34361.1 hPa NNE 7.9 mph /  12.7 km/h 8.0 mph /  12.9 km/h 95 % 0.0 in /  0 mm
18:55 0.0 °F /  -17.8 °C -0.7 °F /  -18.2 °C 1014.8 in /  34361.1 hPa NNE 1.4 mph /  2.3 km/h 6.4 mph /  10.3 km/h 95 % 0.0 in /  0 mm
19:01 0.0 °F /  -17.8 °C -0.7 °F /  -18.2 °C 1014.8 in /  34361.1 hPa North 3.2 mph /  5.1 km/h 6.4 mph /  10.3 km/h 95 % 0.0 in /  0 mm
19:07 0.0 °F /  -17.8 °C -0.6 °F /  -18.1 °C 1014.8 in /  34361.1 hPa NNE 6.4 mph /  10.3 km/h 6.4 mph /  10.3 km/h 96 % 0.0 in /  0 mm
19:13 0.0 °F /  -17.8 °C -0.6 °F /  -18.1 °C 1014.8 in /  34361.1 hPa North 4.7 mph /  7.6 km/h 4.8 mph /  7.7 km/h 96 % 0.0 in /  0 mm
19:19 0.0 °F /  -17.8 °C -0.6 °F /  -18.1 °C 1014.8 in /  34361.1 hPa NNE 3.2 mph /  5.1 km/h 6.4 mph /  10.3 km/h 96 % 0.0 in /  0 mm
19:25 0.0 °F /  -17.8 °C -0.6 °F /  -18.1 °C 1014.8 in /  34361.1 hPa NNE 1.4 mph /  2.3 km/h 6.4 mph /  10.3 km/h 96 % 0.0 in /  0 mm
19:31 0.0 °F /  -17.8 °C -0.6 °F /  -18.1 °C 1014.4 in /  34347.6 hPa NE 7.9 mph /  12.7 km/h 12.9 mph /  20.8 km/h 96 % 0.0 in /  0 mm
19:37 0.0 °F /  -17.8 °C -0.6 °F /  -18.1 °C 1014.4 in /  34347.6 hPa NNE 3.2 mph /  5.1 km/h 6.4 mph /  10.3 km/h 96 % 0.0 in /  0 mm
19:43 0.1 °F /  -17.7 °C -0.5 °F /  -18.1 °C 1014.4 in /  34347.6 hPa Calm   3.2 mph /  5.1 km/h 96 % 0.0 in /  0 mm
19:49 0.1 °F /  -17.7 °C -0.5 °F /  -18.1 °C 1014.4 in /  34347.6 hPa NNE 4.7 mph /  7.6 km/h 9.7 mph /  15.6 km/h 96 % 0.0 in /  0 mm
19:55 0.1 °F /  -17.7 °C -0.5 °F /  -18.1 °C 1014.4 in /  34347.6 hPa NE 1.4 mph /  2.3 km/h 6.4 mph /  10.3 km/h 96 % 0.0 in /  0 mm
20:01 0.1 °F /  -17.7 °C -0.5 °F /  -18.1 °C 1014.4 in /  34347.6 hPa NE 3.2 mph /  5.1 km/h 8.0 mph /  12.9 km/h 96 % 0.0 in /  0 mm
20:07 0.1 °F /  -17.7 °C -0.5 °F /  -18.1 °C 1014.4 in /  34347.6 hPa NE 1.4 mph /  2.3 km/h 6.4 mph /  10.3 km/h 96 % 0.0 in /  0 mm
20:13 0.1 °F /  -17.7 °C -0.5 °F /  -18.1 °C 1014.4 in /  34347.6 hPa NNE 1.4 mph /  2.3 km/h 9.7 mph /  15.6 km/h 96 % 0.0 in /  0 mm
20:19 0.1 °F /  -17.7 °C -0.5 °F /  -18.1 °C 1014.1 in /  34337.4 hPa NNE 3.2 mph /  5.1 km/h 11.3 mph /  18.2 km/h 96 % 0.0 in /  0 mm
20:25 0.1 °F /  -17.7 °C -0.5 °F /  -18.1 °C 1014.1 in /  34337.4 hPa Calm   8.0 mph /  12.9 km/h 96 % 0.0 in /  0 mm
20:31 0.1 °F /  -17.7 °C -0.5 °F /  -18.1 °C 1014.1 in /  34337.4 hPa ENE 3.2 mph /  5.1 km/h 6.4 mph /  10.3 km/h 96 % 0.0 in /  0 mm
20:37 0.1 °F /  -17.7 °C -0.5 °F /  -18.1 °C 1014.1 in /  34337.4 hPa NNE 3.2 mph /  5.1 km/h 6.4 mph /  10.3 km/h 96 % 0.0 in /  0 mm
20:43 0.1 °F /  -17.7 °C -0.3 °F /  -17.9 °C 1014.1 in /  34337.4 hPa NE 3.2 mph /  5.1 km/h 3.2 mph /  5.1 km/h 97 % 0.0 in /  0 mm
20:49 0.1 °F /  -17.7 °C -0.3 °F /  -17.9 °C 1014.1 in /  34337.4 hPa NNE 3.2 mph /  5.1 km/h 6.4 mph /  10.3 km/h 97 % 0.0 in /  0 mm
20:55 0.1 °F /  -17.7 °C -0.3 °F /  -17.9 °C 1014.1 in /  34337.4 hPa Calm   1.6 mph /  2.6 km/h 97 % 0.0 in /  0 mm
21:01 0.1 °F /  -17.7 °C -0.3 °F /  -17.9 °C 1014.1 in /  34337.4 hPa Calm   4.8 mph /  7.7 km/h 97 % 0.0 in /  0 mm
21:07 0.1 °F /  -17.7 °C -0.3 °F /  -17.9 °C 1014.1 in /  34337.4 hPa Calm   4.8 mph /  7.7 km/h 97 % 0.0 in /  0 mm
21:13 0.1 °F /  -17.7 °C -0.3 °F /  -17.9 °C 1014.1 in /  34337.4 hPa Calm   6.4 mph /  10.3 km/h 97 % 0.0 in /  0 mm
21:19 0.1 °F /  -17.7 °C -0.3 °F /  -17.9 °C 1014.1 in /  34337.4 hPa North 1.4 mph /  2.3 km/h 6.4 mph /  10.3 km/h 97 % 0.0 in /  0 mm
21:25 0.2 °F /  -17.7 °C -0.2 °F /  -17.9 °C 1014.1 in /  34337.4 hPa North 1.4 mph /  2.3 km/h 6.4 mph /  10.3 km/h 97 % 0.0 in /  0 mm
21:31 0.1 °F /  -17.7 °C -0.3 °F /  -17.9 °C 1014.1 in /  34337.4 hPa NE 1.4 mph /  2.3 km/h 4.8 mph /  7.7 km/h 97 % 0.0 in /  0 mm
21:37 0.1 °F /  -17.7 °C -0.3 °F /  -17.9 °C 1014.1 in /  34337.4 hPa NNE 1.4 mph /  2.3 km/h 4.8 mph /  7.7 km/h 97 % 0.0 in /  0 mm
21:43 0.1 °F /  -17.7 °C -0.3 °F /  -17.9 °C 1014.1 in /  34337.4 hPa NNW 1.4 mph /  2.3 km/h 6.4 mph /  10.3 km/h 97 % 0.0 in /  0 mm
21:49 0.1 °F /  -17.7 °C -0.3 °F /  -17.9 °C 1014.1 in /  34337.4 hPa NNW 1.4 mph /  2.3 km/h 4.8 mph /  7.7 km/h 97 % 0.0 in /  0 mm
21:55 0.1 °F /  -17.7 °C -0.3 °F /  -17.9 °C 1014.1 in /  34337.4 hPa Calm   6.4 mph /  10.3 km/h 97 % 0.0 in /  0 mm
22:01 0.1 °F /  -17.7 °C -0.3 °F /  -17.9 °C 1014.1 in /  34337.4 hPa NNE 3.2 mph /  5.1 km/h 6.4 mph /  10.3 km/h 97 % 0.0 in /  0 mm
22:07 0.1 °F /  -17.7 °C -0.3 °F /  -17.9 °C 1013.8 in /  34327.3 hPa Calm   4.8 mph /  7.7 km/h 97 % 0.0 in /  0 mm
22:13 0.1 °F /  -17.7 °C -0.3 °F /  -17.9 °C 1013.8 in /  34327.3 hPa NNW 3.2 mph /  5.1 km/h 4.8 mph /  7.7 km/h 97 % 0.0 in /  0 mm
22:19 0.1 °F /  -17.7 °C -0.3 °F /  -17.9 °C 1013.8 in /  34327.3 hPa Calm   4.8 mph /  7.7 km/h 97 % 0.0 in /  0 mm
22:25 0.1 °F /  -17.7 °C -0.3 °F /  -17.9 °C 1013.8 in /  34327.3 hPa NNE 3.2 mph /  5.1 km/h 4.8 mph /  7.7 km/h 97 % 0.0 in /  0 mm
22:31 0.1 °F /  -17.7 °C -0.3 °F /  -17.9 °C 1013.8 in /  34327.3 hPa NNE 1.4 mph /  2.3 km/h 6.4 mph /  10.3 km/h 97 % 0.0 in /  0 mm
22:37 0.1 °F /  -17.7 °C -0.3 °F /  -17.9 °C 1013.8 in /  34327.3 hPa North 1.4 mph /  2.3 km/h 3.2 mph /  5.1 km/h 97 % 0.0 in /  0 mm
22:43 0.1 °F /  -17.7 °C -0.3 °F /  -17.9 °C 1013.4 in /  34313.7 hPa Calm   3.2 mph /  5.1 km/h 97 % 0.0 in /  0 mm
22:49 0.1 °F /  -17.7 °C -0.3 °F /  -17.9 °C 1013.4 in /  34313.7 hPa Calm   3.2 mph /  5.1 km/h 97 % 0.0 in /  0 mm
22:55 0.1 °F /  -17.7 °C -0.3 °F /  -17.9 °C 1013.4 in /  34313.7 hPa Calm   4.8 mph /  7.7 km/h 97 % 0.0 in /  0 mm
23:01 0.1 °F /  -17.7 °C -0.3 °F /  -17.9 °C 1013.4 in /  34313.7 hPa North 3.2 mph /  5.1 km/h 3.2 mph /  5.1 km/h 97 % 0.0 in /  0 mm
23:07 0.1 °F /  -17.7 °C -0.3 °F /  -17.9 °C 1013.1 in /  34303.6 hPa NW 1.4 mph /  2.3 km/h 4.8 mph /  7.7 km/h 97 % 0.0 in /  0 mm
23:13 0.1 °F /  -17.7 °C -0.3 °F /  -17.9 °C 1013.1 in /  34303.6 hPa North 3.2 mph /  5.1 km/h 3.2 mph /  5.1 km/h 97 % 0.0 in /  0 mm
23:19 0.1 °F /  -17.7 °C -0.3 °F /  -17.9 °C 1013.1 in /  34303.6 hPa North 1.4 mph /  2.3 km/h 3.2 mph /  5.1 km/h 97 % 0.0 in /  0 mm
23:25 0.1 °F /  -17.7 °C -0.3 °F /  -17.9 °C 1013.1 in /  34303.6 hPa NNE 3.2 mph /  5.1 km/h 4.8 mph /  7.7 km/h 97 % 0.0 in /  0 mm
23:31 0.1 °F /  -17.7 °C -0.3 °F /  -17.9 °C 1013.1 in /  34303.6 hPa Calm   3.2 mph /  5.1 km/h 97 % 0.0 in /  0 mm
23:37 0.1 °F /  -17.7 °C -0.3 °F /  -17.9 °C 1013.1 in /  34303.6 hPa Calm   1.6 mph /  2.6 km/h 97 % 0.0 in /  0 mm
23:43 0.1 °F /  -17.7 °C -0.3 °F /  -17.9 °C 1013.1 in /  34303.6 hPa Calm   3.2 mph /  5.1 km/h 97 % 0.0 in /  0 mm
23:49 0.1 °F /  -17.7 °C -0.3 °F /  -17.9 °C 1013.1 in /  34303.6 hPa Calm     97 % 0.0 in /  0 mm
23:55 0.0 °F /  -17.8 °C -0.4 °F /  -18 °C 1013.1 in /  34303.6 hPa NNE 1.4 mph /  2.3 km/h 3.2 mph /  5.1 km/h 97 % 0.0 in /  0 mm
Meteo18
Compliments of Weather Underground - 4 mb

Script developed by  Jim McMurry - jmcmurry@mwt.net Adapted for the template by  Wim van der Kuil - Leuven-Template.eu

You find our weather info also at:

European Weather Network

Weather Underground

Equipment we use:

Weather-station
Davis Vue

Weather-program
Meteobridge

Weather-server
Raspberry PI 2 B+

Provider
1 and 1

Davis Vue

Meteobridge

Raspberry PI 2 B+

1 and 1